Time;durP1;ratioP1;P1;durP2;ratioP2;P2;SDS_P1;SDS_P2;PMS_P1;PMS_P2;Temp;Humidity;BMP_temperature;BMP_pressure;BME280_temperature;BME280_humidity;BME280_pressure;Samples;Min_cycle;Max_cycle;Signal;HPM_P1;HPM_P2
2022/03/27 00:00:57;;;;;;;4.40;2.65;;;;;;;;;;5052818;28;20028;-69
2022/03/27 00:03:23;;;;;;;4.45;2.92;;;;;;;;;;5043229;28;20097;-69
2022/03/27 00:05:49;;;;;;;6.57;3.20;;;;;;;;;;5043014;28;20745;-69
2022/03/27 00:08:15;;;;;;;5.18;3.03;;;;;;;;;;5042184;28;20029;-70
2022/03/27 00:13:26;;;;;;;4.88;2.80;;;;;;;;;;5043260;28;20071;-70
2022/03/27 00:15:52;;;;;;;6.95;3.00;;;;;;;;;;5044235;28;20242;-70
2022/03/27 00:18:19;;;;;;;4.32;3.03;;;;;;;;;;5042809;28;20024;-69
2022/03/27 00:20:45;;;;;;;4.72;2.83;;;;;;;;;;5042916;28;20056;-70
2022/03/27 00:23:11;;;;;;;5.18;2.80;;;;;;;;;;5041283;28;20031;-69
2022/03/27 00:25:38;;;;;;;6.55;2.80;;;;;;;;;;5043222;28;20059;-69
2022/03/27 00:28:04;;;;;;;4.30;3.20;;;;;;;;;;5042580;28;20017;-69
2022/03/27 00:30:30;;;;;;;8.02;2.85;;;;;;;;;;5042299;28;20112;-69
2022/03/27 00:32:57;;;;;;;4.18;3.05;;;;;;;;;;5040772;28;20037;-69
2022/03/27 00:35:23;;;;;;;4.20;2.90;;;;;;;;;;5058776;28;20079;-69
2022/03/27 00:37:51;;;;;;;4.60;2.88;;;;;;;;;;5061490;28;20086;-70
2022/03/27 00:40:19;;;;;;;5.10;3.25;;;;;;;;;;5062399;28;20024;-69
2022/03/27 00:42:45;;;;;;;6.45;3.10;;;;;;;;;;5062196;28;20028;-70
2022/03/27 00:45:11;;;;;;;4.07;2.90;;;;;;;;;;5043178;28;20036;-69
2022/03/27 00:47:38;;;;;;;3.92;2.80;;;;;;;;;;5042412;28;20025;-71
2022/03/27 00:50:05;;;;;;;5.32;2.95;;;;;;;;;;5041173;28;20500;-69
2022/03/27 00:52:31;;;;;;;6.28;2.90;;;;;;;;;;5042203;28;20028;-70
2022/03/27 00:54:58;;;;;;;4.38;2.95;;;;;;;;;;5042830;28;20025;-70
2022/03/27 00:57:25;;;;;;;5.97;3.05;;;;;;;;;;5056163;28;20721;-70
2022/03/27 00:59:51;;;;;;;4.63;2.75;;;;;;;;;;5061902;28;20075;-69
2022/03/27 01:02:18;;;;;;;6.50;2.70;;;;;;;;;;5062252;28;20033;-70
2022/03/27 01:04:45;;;;;;;7.85;2.90;;;;;;;;;;5061455;28;20052;-75
2022/03/27 01:07:13;;;;;;;6.15;2.75;;;;;;;;;;5045310;28;20032;-74
2022/03/27 01:09:40;;;;;;;5.03;2.47;;;;;;;;;;5043605;28;20029;-70
2022/03/27 01:12:16;;;;;;;3.38;2.70;;;;;;;;;;5045998;28;20108;-69
2022/03/27 01:14:44;;;;;;;4.28;2.70;;;;;;;;;;5063171;28;20021;-70
2022/03/27 01:17:11;;;;;;;5.32;2.80;;;;;;;;;;5056091;28;20062;-69
2022/03/27 01:19:41;;;;;;;4.30;3.10;;;;;;;;;;5046823;28;20385;-69
2022/03/27 01:22:07;;;;;;;8.63;2.92;;;;;;;;;;5046319;28;20024;-70
2022/03/27 01:24:34;;;;;;;7.75;2.55;;;;;;;;;;5066997;28;20633;-69
2022/03/27 01:27:00;;;;;;;10.05;3.53;;;;;;;;;;5067186;28;20063;-69
2022/03/27 01:29:26;;;;;;;8.57;3.22;;;;;;;;;;5066034;28;20025;-70
2022/03/27 01:31:53;;;;;;;7.18;3.10;;;;;;;;;;5064835;28;20020;-69
2022/03/27 01:34:20;;;;;;;8.20;3.20;;;;;;;;;;5066773;28;20052;-70
2022/03/27 01:36:46;;;;;;;10.00;3.42;;;;;;;;;;5048283;28;20025;-69
2022/03/27 01:39:14;;;;;;;6.43;3.17;;;;;;;;;;5045031;28;21070;-70
2022/03/27 01:41:40;;;;;;;5.57;3.20;;;;;;;;;;5043816;28;20065;-69
2022/03/27 01:44:08;;;;;;;12.13;3.70;;;;;;;;;;5041317;28;20056;-70
2022/03/27 01:46:35;;;;;;;5.65;2.92;;;;;;;;;;5034044;28;20036;-70
2022/03/27 01:49:02;;;;;;;6.50;3.53;;;;;;;;;;5053715;28;20045;-69
2022/03/27 01:51:29;;;;;;;5.30;3.30;;;;;;;;;;5044717;28;20063;-70
2022/03/27 01:53:55;;;;;;;5.47;2.88;;;;;;;;;;5046339;28;20021;-70
2022/03/27 01:56:22;;;;;;;5.50;3.42;;;;;;;;;;5046923;28;20025;-70
2022/03/27 01:58:48;;;;;;;6.93;3.20;;;;;;;;;;5066173;28;20032;-69
2022/03/27 02:01:16;;;;;;;6.68;3.17;;;;;;;;;;5065422;28;20032;-70
2022/03/27 02:03:42;;;;;;;7.55;3.47;;;;;;;;;;5064165;28;20499;-70
2022/03/27 02:06:08;;;;;;;6.25;3.25;;;;;;;;;;5052396;28;20037;-70
2022/03/27 02:08:35;;;;;;;6.13;3.33;;;;;;;;;;5023074;28;20533;-69
2022/03/27 02:11:01;;;;;;;4.57;3.00;;;;;;;;;;5040425;28;20094;-69
2022/03/27 02:13:28;;;;;;;5.10;2.90;;;;;;;;;;5040113;28;20508;-70
2022/03/27 02:15:57;;;;;;;10.48;3.45;;;;;;;;;;5020906;28;20062;-69
2022/03/27 02:18:24;;;;;;;5.90;3.20;;;;;;;;;;5041258;28;20025;-70
2022/03/27 02:20:50;;;;;;;5.90;3.25;;;;;;;;;;5041336;28;20497;-70
2022/03/27 02:23:16;;;;;;;5.57;3.13;;;;;;;;;;5040088;28;20158;-70
2022/03/27 02:25:42;;;;;;;8.20;3.35;;;;;;;;;;5040914;28;20033;-69
2022/03/27 02:28:09;;;;;;;5.45;2.50;;;;;;;;;;5039749;28;20036;-69
2022/03/27 02:30:36;;;;;;;6.70;3.20;;;;;;;;;;5041689;28;20540;-70
2022/03/27 02:33:02;;;;;;;5.30;3.20;;;;;;;;;;5041407;28;20033;-71
2022/03/27 02:35:28;;;;;;;7.95;3.63;;;;;;;;;;5041239;28;20595;-69
2022/03/27 02:37:54;;;;;;;6.97;3.20;;;;;;;;;;5035691;28;20025;-70
2022/03/27 02:40:20;;;;;;;4.78;2.92;;;;;;;;;;5023948;28;20033;-69
2022/03/27 02:42:48;;;;;;;7.10;3.50;;;;;;;;;;5023666;28;20026;-70
2022/03/27 02:45:14;;;;;;;5.30;3.65;;;;;;;;;;5024878;28;20044;-70
2022/03/27 02:47:40;;;;;;;10.10;3.20;;;;;;;;;;5035513;28;20077;-69
2022/03/27 02:50:06;;;;;;;7.10;4.03;;;;;;;;;;5064793;28;20086;-70
2022/03/27 02:52:33;;;;;;;8.27;3.50;;;;;;;;;;5063942;28;20017;-70
2022/03/27 02:54:59;;;;;;;10.25;3.30;;;;;;;;;;5064721;28;20104;-69
2022/03/27 02:57:25;;;;;;;5.82;3.05;;;;;;;;;;5064772;28;20025;-70
2022/03/27 02:59:52;;;;;;;9.38;3.72;;;;;;;;;;5064699;28;20052;-69
2022/03/27 03:02:19;;;;;;;10.43;3.75;;;;;;;;;;5061111;28;20029;-70
2022/03/27 03:04:45;;;;;;;13.13;3.78;;;;;;;;;;5044102;28;20186;-70
2022/03/27 03:07:11;;;;;;;9.07;3.80;;;;;;;;;;5041343;28;20469;-70
2022/03/27 03:09:38;;;;;;;13.73;4.13;;;;;;;;;;5026809;28;20083;-69
2022/03/27 03:12:05;;;;;;;14.73;3.65;;;;;;;;;;5026515;28;20029;-69
2022/03/27 03:14:33;;;;;;;10.23;3.30;;;;;;;;;;5025583;28;20021;-69
2022/03/27 03:17:00;;;;;;;9.02;3.72;;;;;;;;;;5032317;28;20068;-75
2022/03/27 03:19:26;;;;;;;16.95;4.05;;;;;;;;;;5024616;28;20068;-69
2022/03/27 03:21:52;;;;;;;7.65;3.00;;;;;;;;;;5024236;28;20105;-69
2022/03/27 03:24:19;;;;;;;13.90;3.58;;;;;;;;;;5024045;28;20028;-75
2022/03/27 03:26:45;;;;;;;12.48;4.15;;;;;;;;;;5041874;28;20610;-70
2022/03/27 03:29:11;;;;;;;10.07;3.38;;;;;;;;;;5063919;28;20029;-70
2022/03/27 03:31:37;;;;;;;12.93;4.05;;;;;;;;;;5062053;28;20039;-69
2022/03/27 03:34:03;;;;;;;12.75;4.45;;;;;;;;;;5063575;28;20103;-69
2022/03/27 03:36:29;;;;;;;10.63;3.95;;;;;;;;;;5063649;28;20017;-69
2022/03/27 03:38:55;;;;;;;15.13;3.25;;;;;;;;;;5063598;28;20059;-69
2022/03/27 03:41:22;;;;;;;16.77;3.85;;;;;;;;;;5062430;28;20028;-69
2022/03/27 03:43:48;;;;;;;8.57;2.85;;;;;;;;;;5063581;28;20541;-69
2022/03/27 03:46:14;;;;;;;19.02;4.80;;;;;;;;;;5062810;28;20063;-69
2022/03/27 03:48:40;;;;;;;13.77;4.00;;;;;;;;;;5063176;28;20032;-69
2022/03/27 03:51:07;;;;;;;11.85;3.67;;;;;;;;;;5062007;28;20469;-69
2022/03/27 03:53:33;;;;;;;15.13;3.53;;;;;;;;;;5063411;28;20028;-70
2022/03/27 03:55:59;;;;;;;13.45;4.03;;;;;;;;;;5063264;28;20051;-69
2022/03/27 03:58:25;;;;;;;18.17;3.35;;;;;;;;;;5063438;28;20021;-69
2022/03/27 04:00:51;;;;;;;18.08;4.03;;;;;;;;;;5055769;28;20040;-73
2022/03/27 04:03:17;;;;;;;18.92;4.20;;;;;;;;;;5042073;28;20025;-69
2022/03/27 04:05:44;;;;;;;16.50;3.67;;;;;;;;;;5043120;28;20977;-69
2022/03/27 04:08:10;;;;;;;10.90;3.80;;;;;;;;;;5056923;28;20032;-70
2022/03/27 04:10:36;;;;;;;14.18;3.50;;;;;;;;;;5063178;28;20103;-69
2022/03/27 04:13:03;;;;;;;12.27;4.00;;;;;;;;;;5061780;28;20210;-70
2022/03/27 04:15:29;;;;;;;10.25;3.28;;;;;;;;;;5062566;28;20032;-70
2022/03/27 04:17:55;;;;;;;10.75;3.75;;;;;;;;;;5063011;28;20465;-69
2022/03/27 04:20:21;;;;;;;13.18;3.28;;;;;;;;;;5026271;28;20781;-70
2022/03/27 04:22:47;;;;;;;10.57;3.33;;;;;;;;;;5020510;28;20101;-69
2022/03/27 04:25:17;;;;;;;10.10;3.80;;;;;;;;;;5020691;28;20057;-70
2022/03/27 04:27:44;;;;;;;10.55;2.78;;;;;;;;;;5020649;28;20532;-69
2022/03/27 04:30:11;;;;;;;16.35;3.50;;;;;;;;;;5020841;28;20643;-70
2022/03/27 04:32:40;;;;;;;13.20;3.53;;;;;;;;;;5040066;28;20029;-69
2022/03/27 04:35:07;;;;;;;17.02;3.80;;;;;;;;;;5038928;28;20771;-78
2022/03/27 04:37:38;;;;;;;16.35;4.10;;;;;;;;;;5040608;28;20060;-69
2022/03/27 04:40:04;;;;;;;21.58;4.70;;;;;;;;;;5040657;28;20029;-71
2022/03/27 04:42:30;;;;;;;14.93;4.03;;;;;;;;;;5039088;28;20090;-69
2022/03/27 04:44:57;;;;;;;15.10;4.75;;;;;;;;;;5039757;28;20037;-74
2022/03/27 04:47:23;;;;;;;12.10;3.50;;;;;;;;;;5040676;28;20063;-70
2022/03/27 04:49:49;;;;;;;13.50;3.67;;;;;;;;;;5040118;28;20623;-70
2022/03/27 04:52:15;;;;;;;11.73;3.22;;;;;;;;;;5040352;28;20033;-69
2022/03/27 04:54:41;;;;;;;17.27;3.35;;;;;;;;;;5038836;28;20024;-69
2022/03/27 04:57:07;;;;;;;18.17;4.25;;;;;;;;;;5040000;28;20032;-70
2022/03/27 04:59:34;;;;;;;15.25;3.53;;;;;;;;;;5039914;28;20044;-69
2022/03/27 05:02:00;;;;;;;14.27;3.17;;;;;;;;;;5039967;28;20025;-70
2022/03/27 05:04:26;;;;;;;20.33;5.10;;;;;;;;;;5039100;28;20048;-69
2022/03/27 05:06:53;;;;;;;15.82;3.35;;;;;;;;;;5040066;28;20045;-69
2022/03/27 05:09:19;;;;;;;14.07;3.50;;;;;;;;;;5038013;28;20052;-69
2022/03/27 05:11:45;;;;;;;10.80;4.35;;;;;;;;;;5039773;28;20025;-70
2022/03/27 05:14:12;;;;;;;17.35;3.33;;;;;;;;;;5047449;28;20047;-69
2022/03/27 05:16:38;;;;;;;14.95;4.20;;;;;;;;;;5059875;28;20081;-70
2022/03/27 05:19:04;;;;;;;10.02;3.78;;;;;;;;;;5058432;28;20044;-69
2022/03/27 05:21:31;;;;;;;16.08;3.33;;;;;;;;;;5049061;28;20032;-69
2022/03/27 05:23:58;;;;;;;13.93;3.33;;;;;;;;;;5042019;28;20025;-69
2022/03/27 05:26:24;;;;;;;16.05;3.45;;;;;;;;;;5040446;28;20392;-69
2022/03/27 05:28:50;;;;;;;10.88;3.20;;;;;;;;;;5041985;28;20021;-70
2022/03/27 05:31:17;;;;;;;10.85;2.90;;;;;;;;;;5041887;28;20025;-69
2022/03/27 05:33:43;;;;;;;16.48;3.05;;;;;;;;;;5041883;28;20029;-69
2022/03/27 05:36:10;;;;;;;13.02;3.35;;;;;;;;;;5042066;28;20191;-69
2022/03/27 05:38:40;;;;;;;15.00;3.30;;;;;;;;;;5040835;28;20045;-69
2022/03/27 05:41:09;;;;;;;15.43;3.45;;;;;;;;;;5042234;28;20033;-69
2022/03/27 05:43:36;;;;;;;16.00;3.70;;;;;;;;;;5041578;28;20078;-69
2022/03/27 05:46:03;;;;;;;10.60;3.38;;;;;;;;;;5041392;28;20048;-69
2022/03/27 05:48:29;;;;;;;14.80;3.40;;;;;;;;;;5041025;28;20033;-70
2022/03/27 05:50:55;;;;;;;12.27;3.50;;;;;;;;;;5041832;28;20028;-69
2022/03/27 05:53:21;;;;;;;10.35;3.33;;;;;;;;;;5041714;28;20025;-69
2022/03/27 05:55:47;;;;;;;12.60;2.97;;;;;;;;;;5026305;28;20021;-69
2022/03/27 05:58:14;;;;;;;11.80;3.45;;;;;;;;;;5019979;28;20039;-69
2022/03/27 06:00:41;;;;;;;13.23;3.38;;;;;;;;;;5037993;28;20056;-70
2022/03/27 06:03:07;;;;;;;7.45;3.00;;;;;;;;;;5050894;28;20029;-69
2022/03/27 06:05:33;;;;;;;13.43;3.63;;;;;;;;;;5058988;28;20522;-69
2022/03/27 06:07:59;;;;;;;8.75;3.17;;;;;;;;;;5045613;28;20091;-69
2022/03/27 06:10:31;;;;;;;10.70;3.72;;;;;;;;;;5056040;28;20391;-69
2022/03/27 06:12:58;;;;;;;9.38;3.05;;;;;;;;;;5059051;28;20069;-70
2022/03/27 06:15:24;;;;;;;7.28;3.17;;;;;;;;;;5061562;28;20039;-70
2022/03/27 06:17:51;;;;;;;16.73;3.60;;;;;;;;;;5063091;28;20032;-69
2022/03/27 06:20:18;;;;;;;17.58;3.10;;;;;;;;;;5062692;28;20025;-69
2022/03/27 06:22:45;;;;;;;11.80;3.30;;;;;;;;;;5044167;28;20032;-71
2022/03/27 06:25:12;;;;;;;8.52;2.60;;;;;;;;;;5063265;28;20048;-70
2022/03/27 06:27:38;;;;;;;11.38;2.92;;;;;;;;;;5061367;28;20729;-69
2022/03/27 06:30:08;;;;;;;12.63;3.83;;;;;;;;;;5061474;28;20076;-69
2022/03/27 06:32:36;;;;;;;9.45;3.35;;;;;;;;;;5062635;28;20024;-69
2022/03/27 06:35:04;;;;;;;12.65;3.10;;;;;;;;;;5062572;28;20032;-70
2022/03/27 06:37:31;;;;;;;14.45;3.67;;;;;;;;;;5063091;28;20021;-72
2022/03/27 06:39:57;;;;;;;10.57;3.25;;;;;;;;;;5062001;28;20024;-69
2022/03/27 06:42:26;;;;;;;10.77;3.47;;;;;;;;;;5061175;28;20462;-69
2022/03/27 06:44:52;;;;;;;10.80;3.47;;;;;;;;;;5062407;28;20040;-69
2022/03/27 06:47:19;;;;;;;11.48;3.33;;;;;;;;;;5062623;28;20028;-69
2022/03/27 06:49:45;;;;;;;10.43;3.35;;;;;;;;;;5061111;28;20757;-69
2022/03/27 06:52:12;;;;;;;11.00;3.13;;;;;;;;;;5044421;28;20765;-69
2022/03/27 06:54:38;;;;;;;7.88;3.08;;;;;;;;;;5057781;28;20065;-69
2022/03/27 06:57:04;;;;;;;10.32;3.25;;;;;;;;;;5042352;28;20127;-71
2022/03/27 07:05:01;;;;;;;13.70;3.75;;;;;;;;;;5041944;28;20084;-69
2022/03/27 07:07:27;;;;;;;6.03;3.33;;;;;;;;;;5050338;28;20036;-70
2022/03/27 07:09:53;;;;;;;12.45;3.58;;;;;;;;;;5042049;28;20526;-70
2022/03/27 07:12:19;;;;;;;9.75;3.10;;;;;;;;;;5047987;28;20025;-70
2022/03/27 07:14:46;;;;;;;7.22;3.05;;;;;;;;;;5062742;28;20123;-69
2022/03/27 07:17:17;;;;;;;9.35;3.35;;;;;;;;;;5063951;28;20017;-71
2022/03/27 07:19:43;;;;;;;8.33;3.30;;;;;;;;;;5063921;28;20074;-69
2022/03/27 07:22:09;;;;;;;11.23;3.47;;;;;;;;;;5063709;28;20036;-69
2022/03/27 07:24:36;;;;;;;11.18;3.90;;;;;;;;;;5063889;28;20388;-69
2022/03/27 07:27:02;;;;;;;4.70;3.05;;;;;;;;;;5061467;28;20503;-70
2022/03/27 07:29:32;;;;;;;9.48;3.25;;;;;;;;;;5057762;28;20538;-70
2022/03/27 07:31:59;;;;;;;9.50;3.30;;;;;;;;;;5030492;28;20032;-69
2022/03/27 07:34:25;;;;;;;6.57;3.10;;;;;;;;;;5024152;28;20025;-69
2022/03/27 07:36:51;;;;;;;13.45;3.65;;;;;;;;;;5025698;28;20389;-69
2022/03/27 07:39:18;;;;;;;12.70;4.35;;;;;;;;;;5042359;28;20108;-69
2022/03/27 07:41:44;;;;;;;10.63;4.07;;;;;;;;;;5043497;28;20082;-69
2022/03/27 07:44:10;;;;;;;12.07;3.95;;;;;;;;;;5045809;28;20082;-69
2022/03/27 07:46:36;;;;;;;11.93;3.58;;;;;;;;;;5063360;28;20048;-69
2022/03/27 07:49:02;;;;;;;15.20;4.25;;;;;;;;;;5063516;28;20100;-68
2022/03/27 07:51:28;;;;;;;13.88;4.03;;;;;;;;;;5063566;28;20021;-69
2022/03/27 07:53:55;;;;;;;11.85;3.97;;;;;;;;;;5061356;28;20025;-69
2022/03/27 07:56:21;;;;;;;8.10;2.83;;;;;;;;;;5063467;28;20078;-69
2022/03/27 07:58:47;;;;;;;9.23;3.28;;;;;;;;;;5051675;28;20103;-69
2022/03/27 08:01:15;;;;;;;7.15;3.13;;;;;;;;;;5042932;28;20587;-69
2022/03/27 08:03:41;;;;;;;12.55;3.90;;;;;;;;;;5043335;28;20528;-69
2022/03/27 08:06:10;;;;;;;6.68;3.28;;;;;;;;;;5042523;28;20803;-69
2022/03/27 08:08:36;;;;;;;12.65;3.85;;;;;;;;;;5043001;28;20108;-68
2022/03/27 08:11:02;;;;;;;9.68;3.40;;;;;;;;;;5023341;28;20026;-69
2022/03/27 08:13:29;;;;;;;12.15;3.28;;;;;;;;;;5035885;28;20021;-70
2022/03/27 08:15:55;;;;;;;9.57;4.05;;;;;;;;;;5044942;28;20074;-72
2022/03/27 08:18:21;;;;;;;14.70;3.78;;;;;;;;;;5052341;28;20030;-70
2022/03/27 08:20:47;;;;;;;13.35;3.78;;;;;;;;;;5043328;28;20546;-68
2022/03/27 08:23:14;;;;;;;7.63;3.58;;;;;;;;;;5042731;28;20024;-70
2022/03/27 08:28:25;;;;;;;10.30;3.85;;;;;;;;;;5042623;28;20036;-69
2022/03/27 08:30:51;;;;;;;10.73;4.10;;;;;;;;;;5041629;28;20025;-69
2022/03/27 08:33:17;;;;;;;14.35;3.85;;;;;;;;;;5042715;28;20103;-69
2022/03/27 08:35:44;;;;;;;12.48;4.38;;;;;;;;;;5043049;28;20032;-70
2022/03/27 08:38:14;;;;;;;12.60;4.38;;;;;;;;;;5023284;28;20036;-69
2022/03/27 08:40:41;;;;;;;11.23;3.90;;;;;;;;;;5039277;28;20040;-69
2022/03/27 08:43:09;;;;;;;17.83;4.30;;;;;;;;;;5039738;28;20032;-69
2022/03/27 08:45:35;;;;;;;16.23;4.70;;;;;;;;;;5040646;28;20048;-69
2022/03/27 08:48:02;;;;;;;17.15;4.53;;;;;;;;;;5040471;28;20025;-69
2022/03/27 08:50:29;;;;;;;13.00;4.97;;;;;;;;;;5039781;28;20032;-70
2022/03/27 08:53:00;;;;;;;15.25;5.28;;;;;;;;;;5040571;28;20025;-73
2022/03/27 08:55:38;;;;;;;19.17;4.30;;;;;;;;;;5038670;28;20778;-69
2022/03/27 08:58:06;;;;;;;14.07;4.97;;;;;;;;;;5034336;28;20067;-69
2022/03/27 09:00:36;;;;;;;19.90;5.03;;;;;;;;;;5053396;28;20035;-69
2022/03/27 09:03:03;;;;;;;14.50;5.47;;;;;;;;;;5039950;28;20704;-69
2022/03/27 09:05:29;;;;;;;14.10;5.05;;;;;;;;;;5039601;28;20568;-70
2022/03/27 09:07:56;;;;;;;17.45;5.05;;;;;;;;;;5037031;28;20175;-69
2022/03/27 09:10:24;;;;;;;17.90;5.72;;;;;;;;;;5021714;28;20037;-69
2022/03/27 09:12:53;;;;;;;22.15;5.20;;;;;;;;;;5043937;28;20025;-69
2022/03/27 09:15:20;;;;;;;14.65;4.72;;;;;;;;;;5039529;28;20021;-69
2022/03/27 09:18:02;;;;;;;21.88;6.20;;;;;;;;;;5022062;28;20029;-70
2022/03/27 09:20:31;;;;;;;15.85;5.20;;;;;;;;;;5038187;28;20815;-69
2022/03/27 09:23:05;;;;;;;17.70;5.70;;;;;;;;;;5038651;28;20393;-70
2022/03/27 09:25:43;;;;;;;15.18;6.03;;;;;;;;;;5047356;28;20045;-74
2022/03/27 09:28:10;;;;;;;21.90;6.32;;;;;;;;;;5040134;28;20044;-69
2022/03/27 09:30:36;;;;;;;13.82;5.88;;;;;;;;;;5039295;28;20017;-69
2022/03/27 09:33:03;;;;;;;17.45;5.65;;;;;;;;;;5038087;28;20110;-69
2022/03/27 09:35:29;;;;;;;15.40;5.22;;;;;;;;;;5030800;28;20038;-70
2022/03/27 09:37:55;;;;;;;14.18;5.38;;;;;;;;;;5018653;28;20039;-69
2022/03/27 09:40:22;;;;;;;17.75;5.68;;;;;;;;;;5019281;28;20045;-69
2022/03/27 09:43:08;;;;;;;16.75;4.57;;;;;;;;;;5018521;28;20112;-70
2022/03/27 09:45:34;;;;;;;26.88;6.25;;;;;;;;;;5032009;28;20213;-69
2022/03/27 09:48:07;;;;;;;23.98;6.05;;;;;;;;;;5057989;28;20529;-69
2022/03/27 09:50:34;;;;;;;10.32;4.70;;;;;;;;;;5034976;28;20102;-69
2022/03/27 09:53:22;;;;;;;19.73;5.45;;;;;;;;;;5023854;28;20044;-69
2022/03/27 09:55:52;;;;;;;18.00;5.70;;;;;;;;;;5032387;28;20017;-69
2022/03/27 09:58:32;;;;;;;13.75;5.35;;;;;;;;;;5060606;28;20764;-69
2022/03/27 10:01:08;;;;;;;16.00;5.38;;;;;;;;;;5061916;28;20342;-69
2022/03/27 10:03:34;;;;;;;13.05;5.35;;;;;;;;;;5061303;28;20024;-69
2022/03/27 10:06:02;;;;;;;11.68;5.40;;;;;;;;;;5061554;28;20062;-69
2022/03/27 10:08:28;;;;;;;17.40;5.60;;;;;;;;;;5062207;28;20028;-69
2022/03/27 10:10:55;;;;;;;13.98;5.70;;;;;;;;;;5054492;28;20053;-69
2022/03/27 10:13:22;;;;;;;13.68;5.43;;;;;;;;;;5053107;28;20390;-69
2022/03/27 10:15:54;;;;;;;13.75;5.68;;;;;;;;;;5060519;28;20021;-69
2022/03/27 10:18:20;;;;;;;16.50;5.82;;;;;;;;;;5040901;28;20021;-70
2022/03/27 10:20:50;;;;;;;17.88;6.60;;;;;;;;;;5042052;28;20056;-69
2022/03/27 10:23:23;;;;;;;16.42;6.32;;;;;;;;;;5041231;28;20024;-69
2022/03/27 10:25:50;;;;;;;16.20;5.68;;;;;;;;;;5043521;28;20052;-69
2022/03/27 10:28:21;;;;;;;17.30;5.47;;;;;;;;;;5042548;28;20021;-69
2022/03/27 10:30:51;;;;;;;12.57;5.03;;;;;;;;;;5037993;28;20481;-69
2022/03/27 10:33:17;;;;;;;15.82;5.57;;;;;;;;;;5023071;28;20029;-69
2022/03/27 10:35:48;;;;;;;15.50;5.40;;;;;;;;;;5035766;28;20029;-69
2022/03/27 10:38:20;;;;;;;12.05;5.22;;;;;;;;;;5044512;28;20025;-70
2022/03/27 10:41:05;;;;;;;18.75;6.72;;;;;;;;;;5044372;28;20021;-70
2022/03/27 10:43:34;;;;;;;16.48;5.72;;;;;;;;;;5043293;28;20463;-70
2022/03/27 10:46:19;;;;;;;15.40;6.15;;;;;;;;;;5024115;28;20037;-69
2022/03/27 10:48:46;;;;;;;12.70;6.28;;;;;;;;;;5043279;28;20370;-71
2022/03/27 10:51:23;;;;;;;17.63;6.38;;;;;;;;;;5042295;28;20032;-70
2022/03/27 10:54:08;;;;;;;17.35;6.38;;;;;;;;;;5043944;28;20029;-69
2022/03/27 10:56:37;;;;;;;17.58;6.45;;;;;;;;;;5045016;28;20451;-71
2022/03/27 10:59:10;;;;;;;16.88;5.70;;;;;;;;;;5043190;28;20040;-72
2022/03/27 11:01:38;;;;;;;15.95;5.43;;;;;;;;;;5044399;28;20025;-70
2022/03/27 11:04:04;;;;;;;12.25;6.07;;;;;;;;;;5044438;28;20029;-71
2022/03/27 11:06:31;;;;;;;10.80;5.40;;;;;;;;;;5045770;28;20071;-73
2022/03/27 11:09:02;;;;;;;17.33;6.45;;;;;;;;;;5027022;28;20025;-70
2022/03/27 11:11:34;;;;;;;19.27;5.70;;;;;;;;;;5044098;28;20025;-70
2022/03/27 11:14:01;;;;;;;14.10;5.85;;;;;;;;;;5044451;28;20416;-70
2022/03/27 11:16:27;;;;;;;17.48;6.32;;;;;;;;;;5043117;28;20087;-70
2022/03/27 11:18:53;;;;;;;16.00;5.65;;;;;;;;;;5052089;28;20128;-72
2022/03/27 11:21:29;;;;;;;16.55;5.65;;;;;;;;;;5062933;28;20092;-73
2022/03/27 11:23:56;;;;;;;16.05;5.80;;;;;;;;;;5062829;28;20031;-71
2022/03/27 11:26:22;;;;;;;16.65;6.78;;;;;;;;;;5060852;28;20067;-71
2022/03/27 11:28:50;;;;;;;23.20;8.13;;;;;;;;;;5062300;28;20028;-70
2022/03/27 11:31:18;;;;;;;18.35;6.10;;;;;;;;;;5050918;28;20056;-72
2022/03/27 11:33:45;;;;;;;22.45;7.70;;;;;;;;;;5026234;28;20017;-70
2022/03/27 11:36:12;;;;;;;12.57;5.97;;;;;;;;;;5043122;28;20079;-71
2022/03/27 11:38:47;;;;;;;20.50;6.93;;;;;;;;;;5041272;28;20020;-75
2022/03/27 11:41:45;;;;;;;14.77;6.45;;;;;;;;;;5044814;28;20178;-72
2022/03/27 11:44:18;;;;;;;20.23;6.03;;;;;;;;;;5042624;28;20036;-72
2022/03/27 11:46:54;;;;;;;19.33;5.63;;;;;;;;;;5040611;28;20099;-71
2022/03/27 11:49:21;;;;;;;15.55;6.25;;;;;;;;;;5042010;28;20043;-72
2022/03/27 11:51:48;;;;;;;15.02;5.90;;;;;;;;;;5042580;28;20509;-71
2022/03/27 11:54:21;;;;;;;13.48;6.15;;;;;;;;;;5034561;28;20020;-69
2022/03/27 11:56:55;;;;;;;13.07;6.22;;;;;;;;;;5042387;28;20029;-69
2022/03/27 11:59:22;;;;;;;16.52;6.75;;;;;;;;;;5020811;28;20036;-69
2022/03/27 12:01:51;;;;;;;12.98;5.40;;;;;;;;;;5020604;28;20116;-70
2022/03/27 12:04:18;;;;;;;19.48;7.18;;;;;;;;;;5039809;28;20059;-69
2022/03/27 12:06:44;;;;;;;14.02;5.78;;;;;;;;;;5040887;28;20036;-70
2022/03/27 12:09:22;;;;;;;13.02;5.47;;;;;;;;;;5039945;28;20025;-69
2022/03/27 12:12:02;;;;;;;15.30;5.85;;;;;;;;;;5041862;28;20074;-68
2022/03/27 12:14:29;;;;;;;14.90;6.00;;;;;;;;;;5041259;28;20411;-70
2022/03/27 12:16:55;;;;;;;14.63;5.75;;;;;;;;;;5042183;28;20092;-69
2022/03/27 12:19:21;;;;;;;16.20;6.13;;;;;;;;;;5042044;28;20032;-69
2022/03/27 12:21:47;;;;;;;17.73;5.32;;;;;;;;;;5042242;28;20023;-69
2022/03/27 12:24:16;;;;;;;16.58;5.72;;;;;;;;;;5041643;28;20044;-69
2022/03/27 12:29:49;;;;;;;19.20;5.88;;;;;;;;;;5010411;28;20481;-69
2022/03/27 12:32:22;;;;;;;18.17;5.68;;;;;;;;;;5054861;28;20025;-69
2022/03/27 12:34:57;;;;;;;12.93;5.15;;;;;;;;;;5022242;28;20045;-69
2022/03/27 12:37:24;;;;;;;17.70;5.47;;;;;;;;;;5021619;28;20022;-69
2022/03/27 12:39:50;;;;;;;14.07;6.30;;;;;;;;;;5024469;28;20684;-69
2022/03/27 12:42:46;;;;;;;20.33;6.20;;;;;;;;;;5042048;28;20028;-70
2022/03/27 12:45:24;;;;;;;16.45;5.60;;;;;;;;;;5040283;28;20064;-71
2022/03/27 12:47:55;;;;;;;13.20;5.95;;;;;;;;;;5041482;28;20118;-71
2022/03/27 12:50:34;;;;;;;10.85;5.05;;;;;;;;;;5041203;28;20481;-70
2022/03/27 12:53:01;;;;;;;13.68;6.03;;;;;;;;;;5051999;28;20609;-71
2022/03/27 12:55:40;;;;;;;17.15;6.13;;;;;;;;;;5061691;28;20059;-70
2022/03/27 12:58:06;;;;;;;15.27;5.80;;;;;;;;;;5057989;28;20028;-73
2022/03/27 13:00:33;;;;;;;15.40;5.78;;;;;;;;;;5035370;28;20025;-69
2022/03/27 13:03:19;;;;;;;13.98;4.72;;;;;;;;;;5037765;28;20477;-70
2022/03/27 13:05:56;;;;;;;13.43;5.53;;;;;;;;;;5037224;28;20060;-70
2022/03/27 13:08:26;;;;;;;12.88;4.78;;;;;;;;;;5039104;28;20032;-70
2022/03/27 13:10:56;;;;;;;17.85;5.13;;;;;;;;;;5039527;28;20028;-68
2022/03/27 13:13:31;;;;;;;11.98;5.20;;;;;;;;;;5038691;28;20029;-71
2022/03/27 13:15:57;;;;;;;17.35;4.82;;;;;;;;;;5038105;28;20631;-71
2022/03/27 13:18:31;;;;;;;17.15;5.72;;;;;;;;;;5039242;28;20040;-71
2022/03/27 13:20:58;;;;;;;18.58;5.32;;;;;;;;;;5039434;28;20029;-72
2022/03/27 13:23:25;;;;;;;12.45;4.93;;;;;;;;;;5039182;28;20048;-71
2022/03/27 13:25:51;;;;;;;11.38;5.30;;;;;;;;;;5038458;28;20029;-71
2022/03/27 13:28:18;;;;;;;16.48;5.53;;;;;;;;;;5039482;28;20021;-70
2022/03/27 13:30:44;;;;;;;20.13;6.43;;;;;;;;;;5037815;28;20028;-70
2022/03/27 13:33:10;;;;;;;12.68;5.38;;;;;;;;;;5039051;28;20033;-69
2022/03/27 13:35:37;;;;;;;14.95;4.95;;;;;;;;;;5058231;28;20032;-70
2022/03/27 13:38:03;;;;;;;13.32;5.68;;;;;;;;;;5059169;28;20024;-69
2022/03/27 13:43:14;;;;;;;21.52;5.38;;;;;;;;;;5057688;28;20043;-69
2022/03/27 13:45:41;;;;;;;16.58;5.20;;;;;;;;;;5058942;28;20066;-69
2022/03/27 13:48:08;;;;;;;11.40;5.00;;;;;;;;;;5051569;28;20836;-69
2022/03/27 13:50:35;;;;;;;13.05;5.07;;;;;;;;;;5037539;28;20021;-70
2022/03/27 13:53:02;;;;;;;15.68;5.53;;;;;;;;;;5039429;28;20037;-69
2022/03/27 13:55:28;;;;;;;12.23;5.68;;;;;;;;;;5039217;28;20035;-69
2022/03/27 13:57:54;;;;;;;12.93;5.00;;;;;;;;;;5039061;28;20047;-69
2022/03/27 14:00:21;;;;;;;10.77;4.80;;;;;;;;;;5047355;28;20081;-69
2022/03/27 14:02:47;;;;;;;9.07;5.55;;;;;;;;;;5040470;28;20036;-70
2022/03/27 14:05:13;;;;;;;13.75;4.75;;;;;;;;;;5037345;28;20871;-69
2022/03/27 14:07:39;;;;;;;14.55;5.05;;;;;;;;;;5038849;28;20029;-69
2022/03/27 14:10:05;;;;;;;17.35;7.13;;;;;;;;;;5038634;28;20082;-69
2022/03/27 14:12:33;;;;;;;14.55;5.55;;;;;;;;;;5037369;28;20037;-69
2022/03/27 14:14:59;;;;;;;36.00;25.70;;;;;;;;;;5039371;28;20055;-70
2022/03/27 14:17:25;;;;;;;19.05;12.75;;;;;;;;;;5039278;28;20485;-71
2022/03/27 14:19:51;;;;;;;14.93;5.93;;;;;;;;;;5040011;28;20595;-71
2022/03/27 14:22:17;;;;;;;15.02;6.13;;;;;;;;;;5019760;28;20025;-72
2022/03/27 14:24:48;;;;;;;12.85;8.70;;;;;;;;;;5038178;28;20079;-70
2022/03/27 14:27:15;;;;;;;9.17;6.00;;;;;;;;;;5038682;28;20035;-69
2022/03/27 14:29:41;;;;;;;12.10;5.75;;;;;;;;;;5038249;28;20116;-69
2022/03/27 14:32:09;;;;;;;15.10;5.93;;;;;;;;;;5038553;28;20041;-71
2022/03/27 14:34:35;;;;;;;13.77;5.35;;;;;;;;;;5037452;28;20409;-69
2022/03/27 14:37:04;;;;;;;10.38;5.88;;;;;;;;;;5041275;28;20017;-70
2022/03/27 14:39:30;;;;;;;12.68;5.57;;;;;;;;;;5042204;28;20409;-69
2022/03/27 14:41:56;;;;;;;21.90;6.97;;;;;;;;;;5042614;28;20869;-69
2022/03/27 14:44:23;;;;;;;12.70;6.05;;;;;;;;;;5042080;28;20116;-69
2022/03/27 14:46:49;;;;;;;11.63;5.90;;;;;;;;;;5042040;28;20040;-72
2022/03/27 14:49:15;;;;;;;15.57;5.70;;;;;;;;;;5040104;28;20044;-70
2022/03/27 14:51:42;;;;;;;12.70;5.03;;;;;;;;;;5024111;28;20934;-71
2022/03/27 14:56:53;;;;;;;10.82;5.35;;;;;;;;;;5047129;28;20070;-72